sensor_id;sensor_type;location;lat;lon;timestamp;P1;P2;P0
23240;PMS7003;11789;53.482;9.862;2023-12-20T00:01:39;2.00;1.00;0.50
23240;PMS7003;11789;53.482;9.862;2023-12-20T00:04:04;1.00;1.00;1.00
23240;PMS7003;11789;53.482;9.862;2023-12-20T00:06:31;3.75;1.00;0.00
23240;PMS7003;11789;53.482;9.862;2023-12-20T00:08:56;0.75;0.50;0.00
23240;PMS7003;11789;53.482;9.862;2023-12-20T00:11:23;2.50;1.00;0.00
23240;PMS7003;11789;53.482;9.862;2023-12-20T00:13:49;1.00;0.25;0.25
23240;PMS7003;11789;53.482;9.862;2023-12-20T00:16:14;5.00;2.00;1.00
23240;PMS7003;11789;53.482;9.862;2023-12-20T00:18:39;0.25;0.25;0.00
23240;PMS7003;11789;53.482;9.862;2023-12-20T00:21:05;3.75;1.75;0.00
23240;PMS7003;11789;53.482;9.862;2023-12-20T00:23:30;1.00;1.00;1.00
23240;PMS7003;11789;53.482;9.862;2023-12-20T00:25:56;4.00;2.00;0.75
23240;PMS7003;11789;53.482;9.862;2023-12-20T00:28:21;1.00;1.00;0.00
23240;PMS7003;11789;53.482;9.862;2023-12-20T00:30:47;1.00;0.00;0.00
23240;PMS7003;11789;53.482;9.862;2023-12-20T00:33:13;4.00;2.00;0.50
23240;PMS7003;11789;53.482;9.862;2023-12-20T00:35:38;0.25;0.25;0.00
23240;PMS7003;11789;53.482;9.862;2023-12-20T00:38:03;3.75;0.25;0.00
23240;PMS7003;11789;53.482;9.862;2023-12-20T00:40:30;1.00;1.00;0.00
23240;PMS7003;11789;53.482;9.862;2023-12-20T00:42:55;2.50;1.00;1.00
23240;PMS7003;11789;53.482;9.862;2023-12-20T00:45:21;2.75;1.00;0.00
23240;PMS7003;11789;53.482;9.862;2023-12-20T00:47:46;1.75;1.75;0.00
23240;PMS7003;11789;53.482;9.862;2023-12-20T00:50:12;1.00;1.00;0.00
23240;PMS7003;11789;53.482;9.862;2023-12-20T00:52:37;0.00;0.00;0.00
23240;PMS7003;11789;53.482;9.862;2023-12-20T00:55:03;5.75;1.00;0.00
23240;PMS7003;11789;53.482;9.862;2023-12-20T00:57:29;4.00;1.00;0.75
23240;PMS7003;11789;53.482;9.862;2023-12-20T00:59:54;1.00;1.00;0.00
23240;PMS7003;11789;53.482;9.862;2023-12-20T01:02:20;1.00;1.00;0.00
23240;PMS7003;11789;53.482;9.862;2023-12-20T01:04:45;2.25;1.00;0.00
23240;PMS7003;11789;53.482;9.862;2023-12-20T01:07:11;8.00;1.00;0.00
23240;PMS7003;11789;53.482;9.862;2023-12-20T01:09:36;0.00;0.00;0.00
23240;PMS7003;11789;53.482;9.862;2023-12-20T01:12:01;2.00;0.50;0.00
23240;PMS7003;11789;53.482;9.862;2023-12-20T01:14:27;5.25;1.50;0.75
23240;PMS7003;11789;53.482;9.862;2023-12-20T01:16:52;1.25;1.00;0.75
23240;PMS7003;11789;53.482;9.862;2023-12-20T01:19:18;1.00;1.00;0.00
23240;PMS7003;11789;53.482;9.862;2023-12-20T01:21:43;2.50;1.00;0.00
23240;PMS7003;11789;53.482;9.862;2023-12-20T01:24:09;1.00;1.00;0.00
23240;PMS7003;11789;53.482;9.862;2023-12-20T01:26:34;0.25;0.25;0.00
23240;PMS7003;11789;53.482;9.862;2023-12-20T01:29:00;1.75;1.75;0.00
23240;PMS7003;11789;53.482;9.862;2023-12-20T01:31:26;1.00;1.00;0.00
23240;PMS7003;11789;53.482;9.862;2023-12-20T01:33:52;2.50;1.00;0.00
23240;PMS7003;11789;53.482;9.862;2023-12-20T01:36:18;5.00;1.00;0.00
23240;PMS7003;11789;53.482;9.862;2023-12-20T01:38:43;6.25;1.00;0.00
23240;PMS7003;11789;53.482;9.862;2023-12-20T01:41:08;2.00;0.50;0.00
23240;PMS7003;11789;53.482;9.862;2023-12-20T01:43:34;1.75;0.00;0.00
23240;PMS7003;11789;53.482;9.862;2023-12-20T01:45:59;3.25;0.25;0.00
23240;PMS7003;11789;53.482;9.862;2023-12-20T01:48:25;3.25;1.00;1.00
23240;PMS7003;11789;53.482;9.862;2023-12-20T01:50:52;3.75;1.00;0.00
23240;PMS7003;11789;53.482;9.862;2023-12-20T01:53:19;0.75;0.75;0.00
23240;PMS7003;11789;53.482;9.862;2023-12-20T01:55:48;1.25;1.00;0.00
23240;PMS7003;11789;53.482;9.862;2023-12-20T01:58:15;5.75;1.00;0.00
23240;PMS7003;11789;53.482;9.862;2023-12-20T02:00:42;3.75;1.00;0.00
23240;PMS7003;11789;53.482;9.862;2023-12-20T02:03:07;1.00;1.00;0.75
23240;PMS7003;11789;53.482;9.862;2023-12-20T02:05:34;2.25;0.00;0.00
23240;PMS7003;11789;53.482;9.862;2023-12-20T02:08:00;1.50;1.50;0.00
23240;PMS7003;11789;53.482;9.862;2023-12-20T02:10:26;1.50;0.25;0.00
23240;PMS7003;11789;53.482;9.862;2023-12-20T02:12:52;3.00;1.50;1.00
23240;PMS7003;11789;53.482;9.862;2023-12-20T02:15:18;1.00;1.00;0.00
23240;PMS7003;11789;53.482;9.862;2023-12-20T02:17:44;2.75;1.00;0.00
23240;PMS7003;11789;53.482;9.862;2023-12-20T02:20:11;1.75;1.00;0.00
23240;PMS7003;11789;53.482;9.862;2023-12-20T02:22:36;1.75;1.50;0.75
23240;PMS7003;11789;53.482;9.862;2023-12-20T02:25:02;3.50;1.75;1.00
23240;PMS7003;11789;53.482;9.862;2023-12-20T02:27:27;7.00;1.75;1.00
23240;PMS7003;11789;53.482;9.862;2023-12-20T02:29:54;2.50;0.75;0.25
23240;PMS7003;11789;53.482;9.862;2023-12-20T02:32:20;3.00;1.25;1.00
23240;PMS7003;11789;53.482;9.862;2023-12-20T02:34:47;1.25;1.00;0.00
23240;PMS7003;11789;53.482;9.862;2023-12-20T02:37:13;4.00;2.00;1.00
23240;PMS7003;11789;53.482;9.862;2023-12-20T02:39:39;3.50;1.50;0.50
23240;PMS7003;11789;53.482;9.862;2023-12-20T02:42:04;6.25;2.00;1.00
23240;PMS7003;11789;53.482;9.862;2023-12-20T02:44:30;3.00;1.50;1.00
23240;PMS7003;11789;53.482;9.862;2023-12-20T02:46:55;3.00;0.50;0.00
23240;PMS7003;11789;53.482;9.862;2023-12-20T02:49:21;2.75;1.00;0.75
23240;PMS7003;11789;53.482;9.862;2023-12-20T02:51:46;4.50;2.00;1.00
23240;PMS7003;11789;53.482;9.862;2023-12-20T02:54:12;3.75;2.00;1.00
23240;PMS7003;11789;53.482;9.862;2023-12-20T02:56:37;3.50;1.50;1.00
23240;PMS7003;11789;53.482;9.862;2023-12-20T02:59:03;2.00;2.00;1.00
23240;PMS7003;11789;53.482;9.862;2023-12-20T03:01:31;4.25;2.00;1.50
23240;PMS7003;11789;53.482;9.862;2023-12-20T03:03:56;3.00;1.00;0.75
23240;PMS7003;11789;53.482;9.862;2023-12-20T03:06:22;2.50;1.00;1.00
23240;PMS7003;11789;53.482;9.862;2023-12-20T03:08:47;3.50;2.00;1.25
23240;PMS7003;11789;53.482;9.862;2023-12-20T03:11:13;2.00;2.00;1.00
23240;PMS7003;11789;53.482;9.862;2023-12-20T03:13:38;3.00;1.50;1.00
23240;PMS7003;11789;53.482;9.862;2023-12-20T03:16:10;1.00;1.00;1.00
23240;PMS7003;11789;53.482;9.862;2023-12-20T03:18:36;2.00;2.00;2.00
23240;PMS7003;11789;53.482;9.862;2023-12-20T03:21:02;3.00;1.00;0.75
23240;PMS7003;11789;53.482;9.862;2023-12-20T03:23:29;3.50;1.00;1.00
23240;PMS7003;11789;53.482;9.862;2023-12-20T03:25:55;2.00;2.00;0.75
23240;PMS7003;11789;53.482;9.862;2023-12-20T03:28:21;2.75;1.25;0.00
23240;PMS7003;11789;53.482;9.862;2023-12-20T03:30:48;3.50;1.00;1.00
23240;PMS7003;11789;53.482;9.862;2023-12-20T03:33:13;1.50;1.00;1.00
23240;PMS7003;11789;53.482;9.862;2023-12-20T03:35:39;2.00;1.00;0.00
23240;PMS7003;11789;53.482;9.862;2023-12-20T03:38:04;1.50;1.50;1.00
23240;PMS7003;11789;53.482;9.862;2023-12-20T03:40:30;3.00;1.00;1.00
23240;PMS7003;11789;53.482;9.862;2023-12-20T03:42:55;3.00;1.00;0.25
23240;PMS7003;11789;53.482;9.862;2023-12-20T03:45:20;1.00;1.00;0.50
23240;PMS7003;11789;53.482;9.862;2023-12-20T03:47:46;2.50;2.50;1.00
23240;PMS7003;11789;53.482;9.862;2023-12-20T03:50:12;3.50;1.50;1.00
23240;PMS7003;11789;53.482;9.862;2023-12-20T03:52:37;2.75;1.00;1.00
23240;PMS7003;11789;53.482;9.862;2023-12-20T03:55:03;1.75;1.75;1.00
23240;PMS7003;11789;53.482;9.862;2023-12-20T03:57:28;1.00;1.00;1.00
23240;PMS7003;11789;53.482;9.862;2023-12-20T03:59:54;5.00;2.00;1.00
23240;PMS7003;11789;53.482;9.862;2023-12-20T04:02:19;1.75;1.50;1.00
23240;PMS7003;11789;53.482;9.862;2023-12-20T04:04:44;1.00;1.00;0.50
23240;PMS7003;11789;53.482;9.862;2023-12-20T04:07:10;4.50;1.50;0.50
23240;PMS7003;11789;53.482;9.862;2023-12-20T04:09:35;3.00;1.50;1.00
23240;PMS7003;11789;53.482;9.862;2023-12-20T04:12:01;3.00;1.25;1.00
23240;PMS7003;11789;53.482;9.862;2023-12-20T04:14:26;2.00;1.00;0.25
23240;PMS7003;11789;53.482;9.862;2023-12-20T04:16:52;3.00;2.00;1.00
23240;PMS7003;11789;53.482;9.862;2023-12-20T04:19:17;5.00;2.00;1.00
23240;PMS7003;11789;53.482;9.862;2023-12-20T04:21:43;1.00;1.00;1.00
23240;PMS7003;11789;53.482;9.862;2023-12-20T04:24:08;3.00;1.25;1.00
23240;PMS7003;11789;53.482;9.862;2023-12-20T04:26:33;2.75;1.25;1.00
23240;PMS7003;11789;53.482;9.862;2023-12-20T04:28:59;3.75;2.25;2.00
23240;PMS7003;11789;53.482;9.862;2023-12-20T04:31:24;3.50;2.00;2.00
23240;PMS7003;11789;53.482;9.862;2023-12-20T04:33:50;3.50;1.25;1.00
23240;PMS7003;11789;53.482;9.862;2023-12-20T04:36:15;2.00;2.00;1.00
23240;PMS7003;11789;53.482;9.862;2023-12-20T04:38:41;3.50;3.00;1.25
23240;PMS7003;11789;53.482;9.862;2023-12-20T04:41:06;5.00;1.50;1.00
23240;PMS7003;11789;53.482;9.862;2023-12-20T04:43:31;3.50;2.00;2.00
23240;PMS7003;11789;53.482;9.862;2023-12-20T04:45:57;4.75;4.00;2.00
23240;PMS7003;11789;53.482;9.862;2023-12-20T04:48:23;2.50;2.50;1.25
23240;PMS7003;11789;53.482;9.862;2023-12-20T04:50:48;4.75;3.50;1.75
23240;PMS7003;11789;53.482;9.862;2023-12-20T04:53:14;9.00;3.50;2.25
23240;PMS7003;11789;53.482;9.862;2023-12-20T04:55:39;3.75;3.50;2.00
23240;PMS7003;11789;53.482;9.862;2023-12-20T04:58:04;3.25;3.25;1.50
23240;PMS7003;11789;53.482;9.862;2023-12-20T05:00:30;5.25;4.75;2.75
23240;PMS7003;11789;53.482;9.862;2023-12-20T05:02:56;4.00;3.75;2.00
23240;PMS7003;11789;53.482;9.862;2023-12-20T05:05:21;3.75;3.25;2.00
23240;PMS7003;11789;53.482;9.862;2023-12-20T05:07:47;4.25;3.00;2.00
23240;PMS7003;11789;53.482;9.862;2023-12-20T05:10:12;5.25;3.00;2.00
23240;PMS7003;11789;53.482;9.862;2023-12-20T05:12:38;8.50;3.25;2.25
23240;PMS7003;11789;53.482;9.862;2023-12-20T05:15:05;3.00;3.00;2.00
23240;PMS7003;11789;53.482;9.862;2023-12-20T05:17:31;3.25;2.50;2.00
23240;PMS7003;11789;53.482;9.862;2023-12-20T05:19:56;4.00;2.00;2.00
23240;PMS7003;11789;53.482;9.862;2023-12-20T05:22:22;5.25;4.00;3.00
23240;PMS7003;11789;53.482;9.862;2023-12-20T05:24:47;11.25;4.00;3.00
23240;PMS7003;11789;53.482;9.862;2023-12-20T05:27:12;6.00;4.00;2.75
23240;PMS7003;11789;53.482;9.862;2023-12-20T05:29:39;5.25;3.25;2.25
23240;PMS7003;11789;53.482;9.862;2023-12-20T05:32:04;3.00;3.00;2.00
23240;PMS7003;11789;53.482;9.862;2023-12-20T05:34:30;9.25;4.25;3.00
23240;PMS7003;11789;53.482;9.862;2023-12-20T05:36:57;8.00;3.50;1.25
23240;PMS7003;11789;53.482;9.862;2023-12-20T05:39:23;7.25;3.00;2.00
23240;PMS7003;11789;53.482;9.862;2023-12-20T05:41:48;3.75;3.75;2.25
23240;PMS7003;11789;53.482;9.862;2023-12-20T05:44:14;4.25;4.00;2.50
23240;PMS7003;11789;53.482;9.862;2023-12-20T05:46:39;5.75;4.00;3.00
23240;PMS7003;11789;53.482;9.862;2023-12-20T05:49:05;9.50;5.75;3.00
23240;PMS7003;11789;53.482;9.862;2023-12-20T05:51:31;4.25;3.75;2.00
23240;PMS7003;11789;53.482;9.862;2023-12-20T05:53:56;4.50;3.00;2.00
23240;PMS7003;11789;53.482;9.862;2023-12-20T05:56:22;2.00;2.00;2.00
23240;PMS7003;11789;53.482;9.862;2023-12-20T05:58:47;8.75;3.00;2.00
23240;PMS7003;11789;53.482;9.862;2023-12-20T06:01:14;5.00;3.00;2.00
23240;PMS7003;11789;53.482;9.862;2023-12-20T06:03:43;2.00;2.00;1.00
23240;PMS7003;11789;53.482;9.862;2023-12-20T06:06:08;7.00;3.25;2.25
23240;PMS7003;11789;53.482;9.862;2023-12-20T06:08:34;6.25;3.00;2.00
23240;PMS7003;11789;53.482;9.862;2023-12-20T06:11:01;4.00;4.00;2.00
23240;PMS7003;11789;53.482;9.862;2023-12-20T06:13:26;6.50;3.75;2.00
23240;PMS7003;11789;53.482;9.862;2023-12-20T06:15:52;5.25;3.00;2.00
23240;PMS7003;11789;53.482;9.862;2023-12-20T06:18:19;3.75;2.50;2.00
23240;PMS7003;11789;53.482;9.862;2023-12-20T06:20:44;5.50;3.00;2.00
23240;PMS7003;11789;53.482;9.862;2023-12-20T06:23:10;6.25;4.00;2.00
23240;PMS7003;11789;53.482;9.862;2023-12-20T06:25:35;3.75;2.25;1.00
23240;PMS7003;11789;53.482;9.862;2023-12-20T06:28:01;6.00;3.00;2.00
23240;PMS7003;11789;53.482;9.862;2023-12-20T06:30:26;4.50;2.25;1.00
23240;PMS7003;11789;53.482;9.862;2023-12-20T06:32:53;7.00;3.00;2.00
23240;PMS7003;11789;53.482;9.862;2023-12-20T06:35:19;2.50;2.00;1.00
23240;PMS7003;11789;53.482;9.862;2023-12-20T06:37:45;3.00;2.00;1.00
23240;PMS7003;11789;53.482;9.862;2023-12-20T06:40:10;3.25;2.00;1.00
23240;PMS7003;11789;53.482;9.862;2023-12-20T06:42:36;2.75;2.00;1.00
23240;PMS7003;11789;53.482;9.862;2023-12-20T06:45:01;6.25;1.50;1.00
23240;PMS7003;11789;53.482;9.862;2023-12-20T06:47:27;4.25;1.50;1.25
23240;PMS7003;11789;53.482;9.862;2023-12-20T06:49:53;4.50;3.00;1.75
23240;PMS7003;11789;53.482;9.862;2023-12-20T06:52:18;5.00;4.00;2.00
23240;PMS7003;11789;53.482;9.862;2023-12-20T06:54:43;4.00;2.75;1.50
23240;PMS7003;11789;53.482;9.862;2023-12-20T06:57:09;5.75;3.75;1.00
23240;PMS7003;11789;53.482;9.862;2023-12-20T06:59:38;5.75;2.25;1.75
23240;PMS7003;11789;53.482;9.862;2023-12-20T07:02:05;3.75;3.00;1.00
23240;PMS7003;11789;53.482;9.862;2023-12-20T07:04:31;3.00;2.25;1.50
23240;PMS7003;11789;53.482;9.862;2023-12-20T07:06:56;2.50;2.50;1.75
23240;PMS7003;11789;53.482;9.862;2023-12-20T07:09:25;3.00;3.00;2.00
23240;PMS7003;11789;53.482;9.862;2023-12-20T07:11:50;4.50;2.75;2.00
23240;PMS7003;11789;53.482;9.862;2023-12-20T07:14:16;8.50;4.00;2.00
23240;PMS7003;11789;53.482;9.862;2023-12-20T07:16:41;2.00;2.00;1.00
23240;PMS7003;11789;53.482;9.862;2023-12-20T07:19:07;7.00;3.00;2.00
23240;PMS7003;11789;53.482;9.862;2023-12-20T07:21:32;6.25;4.00;2.00
23240;PMS7003;11789;53.482;9.862;2023-12-20T07:23:57;8.25;3.75;2.75
23240;PMS7003;11789;53.482;9.862;2023-12-20T07:26:23;5.00;2.50;2.00
23240;PMS7003;11789;53.482;9.862;2023-12-20T07:28:48;9.25;3.25;2.00
23240;PMS7003;11789;53.482;9.862;2023-12-20T07:31:17;3.75;3.75;1.50
23240;PMS7003;11789;53.482;9.862;2023-12-20T07:33:43;4.75;3.00;2.00
23240;PMS7003;11789;53.482;9.862;2023-12-20T07:36:09;5.25;2.50;2.00
23240;PMS7003;11789;53.482;9.862;2023-12-20T07:38:34;11.50;5.75;2.00
23240;PMS7003;11789;53.482;9.862;2023-12-20T07:41:00;8.50;3.50;2.00
23240;PMS7003;11789;53.482;9.862;2023-12-20T07:43:25;10.00;3.00;2.00
23240;PMS7003;11789;53.482;9.862;2023-12-20T07:45:51;3.00;3.00;2.00
23240;PMS7003;11789;53.482;9.862;2023-12-20T07:48:16;8.25;3.50;2.00
23240;PMS7003;11789;53.482;9.862;2023-12-20T07:50:42;5.00;2.00;1.50
23240;PMS7003;11789;53.482;9.862;2023-12-20T07:53:08;4.50;3.00;2.00
23240;PMS7003;11789;53.482;9.862;2023-12-20T07:55:33;4.50;4.50;2.00
23240;PMS7003;11789;53.482;9.862;2023-12-20T07:57:59;7.00;4.00;2.00
23240;PMS7003;11789;53.482;9.862;2023-12-20T08:00:26;6.50;2.50;2.00
23240;PMS7003;11789;53.482;9.862;2023-12-20T08:02:51;2.25;2.25;1.00
23240;PMS7003;11789;53.482;9.862;2023-12-20T08:05:17;9.00;3.00;2.00
23240;PMS7003;11789;53.482;9.862;2023-12-20T08:07:42;9.25;3.00;2.00
23240;PMS7003;11789;53.482;9.862;2023-12-20T08:10:08;5.25;3.75;2.00
23240;PMS7003;11789;53.482;9.862;2023-12-20T08:12:33;4.00;4.00;2.50
23240;PMS7003;11789;53.482;9.862;2023-12-20T08:14:59;10.75;4.00;2.00
23240;PMS7003;11789;53.482;9.862;2023-12-20T08:17:25;4.25;3.75;2.00
23240;PMS7003;11789;53.482;9.862;2023-12-20T08:19:51;5.00;3.25;2.00
23240;PMS7003;11789;53.482;9.862;2023-12-20T08:22:16;7.50;4.00;2.00
23240;PMS7003;11789;53.482;9.862;2023-12-20T08:24:42;3.25;2.75;2.00
23240;PMS7003;11789;53.482;9.862;2023-12-20T08:27:07;7.75;2.75;1.75
23240;PMS7003;11789;53.482;9.862;2023-12-20T08:29:34;8.00;2.00;1.00
23240;PMS7003;11789;53.482;9.862;2023-12-20T08:32:00;5.00;4.00;2.75
23240;PMS7003;11789;53.482;9.862;2023-12-20T08:34:25;10.25;4.25;2.00
23240;PMS7003;11789;53.482;9.862;2023-12-20T08:36:51;8.50;3.25;2.00
23240;PMS7003;11789;53.482;9.862;2023-12-20T08:39:16;6.75;2.75;1.50
23240;PMS7003;11789;53.482;9.862;2023-12-20T08:41:42;4.00;4.00;2.00
23240;PMS7003;11789;53.482;9.862;2023-12-20T08:44:08;4.50;4.50;3.00
23240;PMS7003;11789;53.482;9.862;2023-12-20T08:46:34;5.00;2.25;1.25
23240;PMS7003;11789;53.482;9.862;2023-12-20T08:49:00;5.25;4.00;2.00
23240;PMS7003;11789;53.482;9.862;2023-12-20T08:51:26;8.25;4.25;2.75
23240;PMS7003;11789;53.482;9.862;2023-12-20T08:53:52;6.00;4.75;3.00
23240;PMS7003;11789;53.482;9.862;2023-12-20T08:56:18;3.25;2.50;2.00
23240;PMS7003;11789;53.482;9.862;2023-12-20T08:58:45;4.75;3.00;1.75
23240;PMS7003;11789;53.482;9.862;2023-12-20T09:01:11;6.75;3.25;1.75
23240;PMS7003;11789;53.482;9.862;2023-12-20T09:03:37;1.25;1.25;1.00
23240;PMS7003;11789;53.482;9.862;2023-12-20T09:06:02;2.25;2.25;1.00
23240;PMS7003;11789;53.482;9.862;2023-12-20T09:08:28;2.00;2.00;2.00
23240;PMS7003;11789;53.482;9.862;2023-12-20T09:10:54;4.00;2.00;1.00
23240;PMS7003;11789;53.482;9.862;2023-12-20T09:13:19;1.00;0.75;0.75
23240;PMS7003;11789;53.482;9.862;2023-12-20T09:15:45;1.75;0.50;0.00
23240;PMS7003;11789;53.482;9.862;2023-12-20T09:18:11;1.50;1.50;1.00
23240;PMS7003;11789;53.482;9.862;2023-12-20T09:20:37;0.25;0.25;0.00
23240;PMS7003;11789;53.482;9.862;2023-12-20T09:23:02;0.00;0.00;0.00
23240;PMS7003;11789;53.482;9.862;2023-12-20T09:25:28;0.00;0.00;0.00
23240;PMS7003;11789;53.482;9.862;2023-12-20T09:27:54;1.25;1.00;0.00
23240;PMS7003;11789;53.482;9.862;2023-12-20T09:30:20;1.00;0.25;0.00
23240;PMS7003;11789;53.482;9.862;2023-12-20T09:32:46;0.00;0.00;0.00
23240;PMS7003;11789;53.482;9.862;2023-12-20T09:35:11;0.00;0.00;0.00
23240;PMS7003;11789;53.482;9.862;2023-12-20T09:37:37;1.00;0.00;0.00
23240;PMS7003;11789;53.482;9.862;2023-12-20T09:40:03;0.00;0.00;0.00
23240;PMS7003;11789;53.482;9.862;2023-12-20T09:42:39;0.00;0.00;0.00
23240;PMS7003;11789;53.482;9.862;2023-12-20T09:45:14;0.00;0.00;0.00
23240;PMS7003;11789;53.482;9.862;2023-12-20T09:47:43;1.00;0.00;0.00
23240;PMS7003;11789;53.482;9.862;2023-12-20T09:50:08;0.00;0.00;0.00
23240;PMS7003;11789;53.482;9.862;2023-12-20T09:52:34;0.00;0.00;0.00
23240;PMS7003;11789;53.482;9.862;2023-12-20T09:55:01;0.25;0.00;0.00
23240;PMS7003;11789;53.482;9.862;2023-12-20T09:57:31;0.00;0.00;0.00
23240;PMS7003;11789;53.482;9.862;2023-12-20T09:59:57;0.00;0.00;0.00
23240;PMS7003;11789;53.482;9.862;2023-12-20T10:02:23;0.00;0.00;0.00
23240;PMS7003;11789;53.482;9.862;2023-12-20T10:04:52;1.00;0.00;0.00
23240;PMS7003;11789;53.482;9.862;2023-12-20T10:07:19;0.00;0.00;0.00
23240;PMS7003;11789;53.482;9.862;2023-12-20T10:09:45;0.00;0.00;0.00
23240;PMS7003;11789;53.482;9.862;2023-12-20T10:12:12;0.00;0.00;0.00
23240;PMS7003;11789;53.482;9.862;2023-12-20T10:14:38;0.00;0.00;0.00
23240;PMS7003;11789;53.482;9.862;2023-12-20T10:17:04;0.00;0.00;0.00
23240;PMS7003;11789;53.482;9.862;2023-12-20T10:19:31;0.25;0.00;0.00
23240;PMS7003;11789;53.482;9.862;2023-12-20T10:21:58;0.50;0.00;0.00
23240;PMS7003;11789;53.482;9.862;2023-12-20T10:24:25;0.00;0.00;0.00
23240;PMS7003;11789;53.482;9.862;2023-12-20T10:27:02;1.00;0.00;0.00
23240;PMS7003;11789;53.482;9.862;2023-12-20T10:29:33;1.00;0.00;0.00
23240;PMS7003;11789;53.482;9.862;2023-12-20T10:32:21;0.00;0.00;0.00
23240;PMS7003;11789;53.482;9.862;2023-12-20T10:34:49;0.00;0.00;0.00
23240;PMS7003;11789;53.482;9.862;2023-12-20T10:37:15;1.00;0.00;0.00
23240;PMS7003;11789;53.482;9.862;2023-12-20T10:39:41;0.00;0.00;0.00
23240;PMS7003;11789;53.482;9.862;2023-12-20T10:42:08;0.75;0.00;0.00
23240;PMS7003;11789;53.482;9.862;2023-12-20T10:44:37;1.00;0.00;0.00
23240;PMS7003;11789;53.482;9.862;2023-12-20T10:47:03;0.00;0.00;0.00
23240;PMS7003;11789;53.482;9.862;2023-12-20T10:49:30;0.00;0.00;0.00
23240;PMS7003;11789;53.482;9.862;2023-12-20T10:51:56;0.00;0.00;0.00
23240;PMS7003;11789;53.482;9.862;2023-12-20T10:54:24;3.00;0.00;0.00
23240;PMS7003;11789;53.482;9.862;2023-12-20T10:56:50;0.00;0.00;0.00
23240;PMS7003;11789;53.482;9.862;2023-12-20T10:59:18;1.00;0.00;0.00
23240;PMS7003;11789;53.482;9.862;2023-12-20T11:01:45;0.00;0.00;0.00
23240;PMS7003;11789;53.482;9.862;2023-12-20T11:04:15;3.00;0.00;0.00
23240;PMS7003;11789;53.482;9.862;2023-12-20T11:06:47;0.00;0.00;0.00
23240;PMS7003;11789;53.482;9.862;2023-12-20T11:09:24;0.00;0.00;0.00
23240;PMS7003;11789;53.482;9.862;2023-12-20T11:12:07;0.00;0.00;0.00
23240;PMS7003;11789;53.482;9.862;2023-12-20T11:17:14;0.00;0.00;0.00
23240;PMS7003;11789;53.482;9.862;2023-12-20T11:20:24;3.00;0.00;0.00
23240;PMS7003;11789;53.482;9.862;2023-12-20T11:22:31;2.25;0.00;0.00
23240;PMS7003;11789;53.482;9.862;2023-12-20T11:24:59;2.50;0.00;0.00
23240;PMS7003;11789;53.482;9.862;2023-12-20T11:27:33;0.00;0.00;0.00
23240;PMS7003;11789;53.482;9.862;2023-12-20T11:29:59;0.00;0.00;0.00
23240;PMS7003;11789;53.482;9.862;2023-12-20T11:35:16;0.00;0.00;0.00
23240;PMS7003;11789;53.482;9.862;2023-12-20T11:37:39;1.00;0.00;0.00
23240;PMS7003;11789;53.482;9.862;2023-12-20T11:40:11;2.50;1.00;0.00
23240;PMS7003;11789;53.482;9.862;2023-12-20T11:42:40;0.00;0.00;0.00
23240;PMS7003;11789;53.482;9.862;2023-12-20T11:45:09;0.00;0.00;0.00
23240;PMS7003;11789;53.482;9.862;2023-12-20T11:47:35;1.50;1.50;0.00
23240;PMS7003;11789;53.482;9.862;2023-12-20T11:50:01;2.00;1.00;0.00
23240;PMS7003;11789;53.482;9.862;2023-12-20T11:52:29;2.25;1.00;0.00
23240;PMS7003;11789;53.482;9.862;2023-12-20T11:54:55;3.25;1.00;0.00
23240;PMS7003;11789;53.482;9.862;2023-12-20T11:57:20;2.00;0.00;0.00
23240;PMS7003;11789;53.482;9.862;2023-12-20T11:59:46;2.00;1.00;0.00
23240;PMS7003;11789;53.482;9.862;2023-12-20T12:02:11;1.00;0.00;0.00
23240;PMS7003;11789;53.482;9.862;2023-12-20T12:04:37;2.00;0.00;0.00
23240;PMS7003;11789;53.482;9.862;2023-12-20T12:07:03;0.00;0.00;0.00
23240;PMS7003;11789;53.482;9.862;2023-12-20T12:09:28;0.00;0.00;0.00
23240;PMS7003;11789;53.482;9.862;2023-12-20T12:11:54;3.50;1.00;0.50
23240;PMS7003;11789;53.482;9.862;2023-12-20T12:14:20;2.00;0.00;0.00
23240;PMS7003;11789;53.482;9.862;2023-12-20T12:16:45;1.50;0.00;0.00
23240;PMS7003;11789;53.482;9.862;2023-12-20T12:19:24;0.50;0.50;0.50
23240;PMS7003;11789;53.482;9.862;2023-12-20T12:21:51;0.00;0.00;0.00
23240;PMS7003;11789;53.482;9.862;2023-12-20T12:24:42;1.25;0.50;0.00
23240;PMS7003;11789;53.482;9.862;2023-12-20T12:27:09;2.00;0.00;0.00
23240;PMS7003;11789;53.482;9.862;2023-12-20T12:29:35;1.00;1.00;0.00
23240;PMS7003;11789;53.482;9.862;2023-12-20T12:32:04;1.00;1.00;0.00
23240;PMS7003;11789;53.482;9.862;2023-12-20T12:34:33;0.00;0.00;0.00
23240;PMS7003;11789;53.482;9.862;2023-12-20T12:36:59;0.00;0.00;0.00
23240;PMS7003;11789;53.482;9.862;2023-12-20T12:39:25;1.00;1.00;0.00
23240;PMS7003;11789;53.482;9.862;2023-12-20T12:41:51;1.25;0.00;0.00
23240;PMS7003;11789;53.482;9.862;2023-12-20T12:44:17;0.00;0.00;0.00
23240;PMS7003;11789;53.482;9.862;2023-12-20T12:46:43;1.00;1.00;0.00
23240;PMS7003;11789;53.482;9.862;2023-12-20T12:49:10;0.25;0.25;0.00
23240;PMS7003;11789;53.482;9.862;2023-12-20T12:51:36;1.75;0.00;0.00
23240;PMS7003;11789;53.482;9.862;2023-12-20T12:54:01;2.00;0.00;0.00
23240;PMS7003;11789;53.482;9.862;2023-12-20T12:56:27;3.00;1.25;1.00
23240;PMS7003;11789;53.482;9.862;2023-12-20T12:58:52;3.00;0.00;0.00
23240;PMS7003;11789;53.482;9.862;2023-12-20T13:01:18;3.00;1.50;0.00
23240;PMS7003;11789;53.482;9.862;2023-12-20T13:03:43;1.75;0.25;0.00
23240;PMS7003;11789;53.482;9.862;2023-12-20T13:06:09;1.50;0.75;0.00
23240;PMS7003;11789;53.482;9.862;2023-12-20T13:08:34;0.75;0.75;0.25
23240;PMS7003;11789;53.482;9.862;2023-12-20T13:11:00;1.00;1.00;0.25
23240;PMS7003;11789;53.482;9.862;2023-12-20T13:13:29;2.25;1.00;0.00
23240;PMS7003;11789;53.482;9.862;2023-12-20T13:15:54;4.00;1.00;0.00
23240;PMS7003;11789;53.482;9.862;2023-12-20T13:18:20;1.00;1.00;0.50
23240;PMS7003;11789;53.482;9.862;2023-12-20T13:20:47;3.00;2.00;0.00
23240;PMS7003;11789;53.482;9.862;2023-12-20T13:23:12;5.00;3.00;1.00
23240;PMS7003;11789;53.482;9.862;2023-12-20T13:25:39;4.25;2.75;1.00
23240;PMS7003;11789;53.482;9.862;2023-12-20T13:28:05;4.75;2.00;1.00
23240;PMS7003;11789;53.482;9.862;2023-12-20T13:30:30;4.00;2.50;1.25
23240;PMS7003;11789;53.482;9.862;2023-12-20T13:32:56;4.00;2.00;1.00
23240;PMS7003;11789;53.482;9.862;2023-12-20T13:35:21;6.00;3.00;1.00
23240;PMS7003;11789;53.482;9.862;2023-12-20T13:37:47;4.00;2.00;1.50
23240;PMS7003;11789;53.482;9.862;2023-12-20T13:40:12;4.75;1.75;0.75
23240;PMS7003;11789;53.482;9.862;2023-12-20T13:42:38;6.00;2.00;1.00
23240;PMS7003;11789;53.482;9.862;2023-12-20T13:45:04;3.00;2.00;1.00
23240;PMS7003;11789;53.482;9.862;2023-12-20T13:47:31;4.00;2.25;1.00
23240;PMS7003;11789;53.482;9.862;2023-12-20T13:49:57;6.25;3.00;1.00
23240;PMS7003;11789;53.482;9.862;2023-12-20T13:52:23;3.50;2.75;1.00
23240;PMS7003;11789;53.482;9.862;2023-12-20T13:54:48;4.75;4.00;2.00
23240;PMS7003;11789;53.482;9.862;2023-12-20T13:57:14;5.00;2.50;1.00
23240;PMS7003;11789;53.482;9.862;2023-12-20T13:59:39;4.50;2.25;1.25
23240;PMS7003;11789;53.482;9.862;2023-12-20T14:02:05;2.50;1.00;1.00
23240;PMS7003;11789;53.482;9.862;2023-12-20T14:04:30;3.00;3.00;2.00
23240;PMS7003;11789;53.482;9.862;2023-12-20T14:06:56;3.00;2.00;1.00
23240;PMS7003;11789;53.482;9.862;2023-12-20T14:09:22;5.00;3.75;2.00
23240;PMS7003;11789;53.482;9.862;2023-12-20T14:11:47;5.25;3.00;1.00
23240;PMS7003;11789;53.482;9.862;2023-12-20T14:14:13;4.50;4.50;2.00
23240;PMS7003;11789;53.482;9.862;2023-12-20T14:16:38;10.00;2.75;1.25
23240;PMS7003;11789;53.482;9.862;2023-12-20T14:19:04;8.50;4.00;1.75
23240;PMS7003;11789;53.482;9.862;2023-12-20T14:21:32;6.00;3.00;1.25
23240;PMS7003;11789;53.482;9.862;2023-12-20T14:23:58;6.50;2.75;2.00